sensor_id;sensor_type;location;lat;lon;timestamp;temperature;humidity
68354;DHT22;55274;43.060;25.618;2023-04-03T00:01:09;6.80;99.90
68354;DHT22;55274;43.060;25.618;2023-04-03T00:03:35;6.80;99.90
68354;DHT22;55274;43.060;25.618;2023-04-03T00:06:01;6.70;99.90
68354;DHT22;55274;43.060;25.618;2023-04-03T00:08:27;6.70;99.90
68354;DHT22;55274;43.060;25.618;2023-04-03T00:10:52;6.50;99.90
68354;DHT22;55274;43.060;25.618;2023-04-03T00:13:18;6.50;99.90
68354;DHT22;55274;43.060;25.618;2023-04-03T00:15:44;6.50;99.90
68354;DHT22;55274;43.060;25.618;2023-04-03T00:18:10;6.50;99.90
68354;DHT22;55274;43.060;25.618;2023-04-03T00:20:36;6.50;99.90
68354;DHT22;55274;43.060;25.618;2023-04-03T00:23:02;6.50;99.90
68354;DHT22;55274;43.060;25.618;2023-04-03T00:25:28;6.40;99.90
68354;DHT22;55274;43.060;25.618;2023-04-03T00:27:54;6.40;99.90
68354;DHT22;55274;43.060;25.618;2023-04-03T00:30:21;6.40;99.90
68354;DHT22;55274;43.060;25.618;2023-04-03T00:32:48;6.40;99.90
68354;DHT22;55274;43.060;25.618;2023-04-03T00:35:14;6.40;99.90
68354;DHT22;55274;43.060;25.618;2023-04-03T00:37:43;6.40;99.90
68354;DHT22;55274;43.060;25.618;2023-04-03T00:40:10;6.40;99.90
68354;DHT22;55274;43.060;25.618;2023-04-03T00:42:37;6.40;99.90
68354;DHT22;55274;43.060;25.618;2023-04-03T00:47:30;6.30;99.90
68354;DHT22;55274;43.060;25.618;2023-04-03T00:49:57;6.30;99.90
68354;DHT22;55274;43.060;25.618;2023-04-03T00:52:27;6.30;99.90
68354;DHT22;55274;43.060;25.618;2023-04-03T00:54:56;6.30;99.90
68354;DHT22;55274;43.060;25.618;2023-04-03T00:57:23;6.30;99.90
68354;DHT22;55274;43.060;25.618;2023-04-03T00:59:52;6.20;99.90
68354;DHT22;55274;43.060;25.618;2023-04-03T01:02:20;6.20;99.90
68354;DHT22;55274;43.060;25.618;2023-04-03T01:04:46;6.20;99.90
68354;DHT22;55274;43.060;25.618;2023-04-03T01:07:17;6.10;99.90
68354;DHT22;55274;43.060;25.618;2023-04-03T01:09:44;6.10;99.90
68354;DHT22;55274;43.060;25.618;2023-04-03T01:14:42;6.00;99.90
68354;DHT22;55274;43.060;25.618;2023-04-03T01:20:41;6.00;99.90
68354;DHT22;55274;43.060;25.618;2023-04-03T01:25:44;6.00;99.90
68354;DHT22;55274;43.060;25.618;2023-04-03T01:28:17;5.90;99.90
68354;DHT22;55274;43.060;25.618;2023-04-03T01:30:53;5.90;99.90
68354;DHT22;55274;43.060;25.618;2023-04-03T01:33:21;5.80;99.90
68354;DHT22;55274;43.060;25.618;2023-04-03T01:35:47;5.80;99.90
68354;DHT22;55274;43.060;25.618;2023-04-03T01:38:12;5.70;99.90
68354;DHT22;55274;43.060;25.618;2023-04-03T01:40:38;5.70;99.90
68354;DHT22;55274;43.060;25.618;2023-04-03T01:43:04;5.70;99.90
68354;DHT22;55274;43.060;25.618;2023-04-03T01:45:30;5.70;99.90
68354;DHT22;55274;43.060;25.618;2023-04-03T01:47:56;5.70;99.90
68354;DHT22;55274;43.060;25.618;2023-04-03T01:50:22;5.60;99.90
68354;DHT22;55274;43.060;25.618;2023-04-03T01:52:47;5.60;99.90
68354;DHT22;55274;43.060;25.618;2023-04-03T01:55:13;5.60;99.90
68354;DHT22;55274;43.060;25.618;2023-04-03T01:57:39;5.50;99.90
68354;DHT22;55274;43.060;25.618;2023-04-03T02:00:05;5.50;99.90
68354;DHT22;55274;43.060;25.618;2023-04-03T02:02:31;5.50;99.90
68354;DHT22;55274;43.060;25.618;2023-04-03T02:04:57;5.40;99.90
68354;DHT22;55274;43.060;25.618;2023-04-03T02:07:23;5.40;99.90
68354;DHT22;55274;43.060;25.618;2023-04-03T02:09:48;5.40;99.90
68354;DHT22;55274;43.060;25.618;2023-04-03T02:12:14;5.40;99.90
68354;DHT22;55274;43.060;25.618;2023-04-03T02:14:40;5.40;99.90
68354;DHT22;55274;43.060;25.618;2023-04-03T02:17:06;5.40;99.90
68354;DHT22;55274;43.060;25.618;2023-04-03T02:19:35;5.30;99.90
68354;DHT22;55274;43.060;25.618;2023-04-03T02:22:05;5.30;99.90
68354;DHT22;55274;43.060;25.618;2023-04-03T02:24:31;5.30;99.90
68354;DHT22;55274;43.060;25.618;2023-04-03T02:26:57;5.30;99.90
68354;DHT22;55274;43.060;25.618;2023-04-03T02:29:23;5.30;99.90
68354;DHT22;55274;43.060;25.618;2023-04-03T02:31:50;5.30;99.90
68354;DHT22;55274;43.060;25.618;2023-04-03T02:34:16;5.30;99.90
68354;DHT22;55274;43.060;25.618;2023-04-03T02:36:42;5.30;99.90
68354;DHT22;55274;43.060;25.618;2023-04-03T02:39:08;5.30;99.90
68354;DHT22;55274;43.060;25.618;2023-04-03T02:41:33;5.30;99.90
68354;DHT22;55274;43.060;25.618;2023-04-03T02:44:02;5.30;99.90
68354;DHT22;55274;43.060;25.618;2023-04-03T02:46:28;5.20;99.90
68354;DHT22;55274;43.060;25.618;2023-04-03T02:48:54;5.20;99.90
68354;DHT22;55274;43.060;25.618;2023-04-03T02:51:20;5.20;99.90
68354;DHT22;55274;43.060;25.618;2023-04-03T02:53:46;5.20;99.90
68354;DHT22;55274;43.060;25.618;2023-04-03T02:56:11;5.20;99.90
68354;DHT22;55274;43.060;25.618;2023-04-03T02:58:37;5.20;99.90
68354;DHT22;55274;43.060;25.618;2023-04-03T03:01:04;5.10;99.90
68354;DHT22;55274;43.060;25.618;2023-04-03T03:03:30;5.00;99.90
68354;DHT22;55274;43.060;25.618;2023-04-03T03:06:07;5.00;99.90
68354;DHT22;55274;43.060;25.618;2023-04-03T03:08:34;5.00;99.90
68354;DHT22;55274;43.060;25.618;2023-04-03T03:11:01;5.00;99.90
68354;DHT22;55274;43.060;25.618;2023-04-03T03:13:27;5.10;99.90
68354;DHT22;55274;43.060;25.618;2023-04-03T03:15:53;5.10;99.90
68354;DHT22;55274;43.060;25.618;2023-04-03T03:18:18;5.10;99.90
68354;DHT22;55274;43.060;25.618;2023-04-03T03:20:44;5.10;99.90
68354;DHT22;55274;43.060;25.618;2023-04-03T03:23:10;5.00;99.90
68354;DHT22;55274;43.060;25.618;2023-04-03T03:25:40;5.00;99.90
68354;DHT22;55274;43.060;25.618;2023-04-03T03:28:06;5.10;99.90
68354;DHT22;55274;43.060;25.618;2023-04-03T03:30:32;5.00;99.90
68354;DHT22;55274;43.060;25.618;2023-04-03T03:32:58;5.00;99.90
68354;DHT22;55274;43.060;25.618;2023-04-03T03:35:25;5.00;99.90
68354;DHT22;55274;43.060;25.618;2023-04-03T03:37:51;5.00;99.90
68354;DHT22;55274;43.060;25.618;2023-04-03T03:40:16;4.90;99.90
68354;DHT22;55274;43.060;25.618;2023-04-03T03:42:42;4.80;99.90
68354;DHT22;55274;43.060;25.618;2023-04-03T03:45:09;4.80;99.90
68354;DHT22;55274;43.060;25.618;2023-04-03T03:47:35;4.80;99.90
68354;DHT22;55274;43.060;25.618;2023-04-03T03:50:01;4.80;99.90
68354;DHT22;55274;43.060;25.618;2023-04-03T03:52:27;4.70;99.90
68354;DHT22;55274;43.060;25.618;2023-04-03T03:54:52;4.70;99.90
68354;DHT22;55274;43.060;25.618;2023-04-03T03:57:18;4.70;99.90
68354;DHT22;55274;43.060;25.618;2023-04-03T03:59:44;4.70;99.90
68354;DHT22;55274;43.060;25.618;2023-04-03T04:02:11;4.70;99.90
68354;DHT22;55274;43.060;25.618;2023-04-03T04:04:37;4.70;99.90
68354;DHT22;55274;43.060;25.618;2023-04-03T04:07:03;4.80;99.90
68354;DHT22;55274;43.060;25.618;2023-04-03T04:09:29;4.80;99.90
68354;DHT22;55274;43.060;25.618;2023-04-03T04:11:55;4.80;99.90
68354;DHT22;55274;43.060;25.618;2023-04-03T04:14:20;4.80;99.90
68354;DHT22;55274;43.060;25.618;2023-04-03T04:16:47;4.80;99.90
68354;DHT22;55274;43.060;25.618;2023-04-03T04:19:13;4.80;99.90
68354;DHT22;55274;43.060;25.618;2023-04-03T04:21:39;4.90;99.90
68354;DHT22;55274;43.060;25.618;2023-04-03T04:24:07;4.90;99.90
68354;DHT22;55274;43.060;25.618;2023-04-03T04:26:33;4.80;99.90
68354;DHT22;55274;43.060;25.618;2023-04-03T04:29:00;4.80;99.90
68354;DHT22;55274;43.060;25.618;2023-04-03T04:31:26;4.80;99.90
68354;DHT22;55274;43.060;25.618;2023-04-03T04:33:52;4.90;99.90
68354;DHT22;55274;43.060;25.618;2023-04-03T04:36:18;4.90;99.90
68354;DHT22;55274;43.060;25.618;2023-04-03T04:38:45;5.00;99.90
68354;DHT22;55274;43.060;25.618;2023-04-03T04:41:11;5.10;99.90
68354;DHT22;55274;43.060;25.618;2023-04-03T04:43:37;5.10;99.90
68354;DHT22;55274;43.060;25.618;2023-04-03T04:46:08;5.20;99.90
68354;DHT22;55274;43.060;25.618;2023-04-03T04:48:35;5.30;99.90
68354;DHT22;55274;43.060;25.618;2023-04-03T04:51:01;5.30;99.90
68354;DHT22;55274;43.060;25.618;2023-04-03T04:53:27;5.40;99.90
68354;DHT22;55274;43.060;25.618;2023-04-03T04:55:53;5.50;99.90
68354;DHT22;55274;43.060;25.618;2023-04-03T04:58:19;5.60;99.90
68354;DHT22;55274;43.060;25.618;2023-04-03T05:00:45;5.70;99.90
68354;DHT22;55274;43.060;25.618;2023-04-03T05:03:11;5.70;99.90
68354;DHT22;55274;43.060;25.618;2023-04-03T05:05:37;5.80;99.90
68354;DHT22;55274;43.060;25.618;2023-04-03T05:08:04;5.90;99.90
68354;DHT22;55274;43.060;25.618;2023-04-03T05:10:30;6.00;99.90
68354;DHT22;55274;43.060;25.618;2023-04-03T05:12:57;6.10;99.90
68354;DHT22;55274;43.060;25.618;2023-04-03T05:15:23;6.40;99.90
68354;DHT22;55274;43.060;25.618;2023-04-03T05:17:49;6.70;99.90
68354;DHT22;55274;43.060;25.618;2023-04-03T05:20:15;6.80;99.90
68354;DHT22;55274;43.060;25.618;2023-04-03T05:22:40;7.00;99.90
68354;DHT22;55274;43.060;25.618;2023-04-03T05:25:07;7.30;99.90
68354;DHT22;55274;43.060;25.618;2023-04-03T05:27:32;7.70;99.90
68354;DHT22;55274;43.060;25.618;2023-04-03T05:29:58;8.30;99.90
68354;DHT22;55274;43.060;25.618;2023-04-03T05:32:25;8.80;99.90
68354;DHT22;55274;43.060;25.618;2023-04-03T05:34:54;8.90;99.90
68354;DHT22;55274;43.060;25.618;2023-04-03T05:37:19;9.30;99.90
68354;DHT22;55274;43.060;25.618;2023-04-03T05:39:46;9.80;99.90
68354;DHT22;55274;43.060;25.618;2023-04-03T05:42:12;10.30;99.90
68354;DHT22;55274;43.060;25.618;2023-04-03T05:44:39;10.70;99.90
68354;DHT22;55274;43.060;25.618;2023-04-03T05:47:06;11.30;99.90
68354;DHT22;55274;43.060;25.618;2023-04-03T05:49:32;11.90;98.20
68354;DHT22;55274;43.060;25.618;2023-04-03T05:51:58;12.20;94.30
68354;DHT22;55274;43.060;25.618;2023-04-03T05:54:27;12.60;91.80
68354;DHT22;55274;43.060;25.618;2023-04-03T05:56:53;12.80;90.90
68354;DHT22;55274;43.060;25.618;2023-04-03T05:59:20;13.20;88.40
68354;DHT22;55274;43.060;25.618;2023-04-03T06:01:46;13.30;86.30
68354;DHT22;55274;43.060;25.618;2023-04-03T06:04:12;13.40;85.00
68354;DHT22;55274;43.060;25.618;2023-04-03T06:06:53;13.60;86.30
68354;DHT22;55274;43.060;25.618;2023-04-03T06:09:25;13.80;82.00
68354;DHT22;55274;43.060;25.618;2023-04-03T06:11:52;13.90;83.00
68354;DHT22;55274;43.060;25.618;2023-04-03T06:14:18;14.00;81.60
68354;DHT22;55274;43.060;25.618;2023-04-03T06:16:45;14.00;80.60
68354;DHT22;55274;43.060;25.618;2023-04-03T06:19:11;13.90;81.30
68354;DHT22;55274;43.060;25.618;2023-04-03T06:21:37;13.80;81.70
68354;DHT22;55274;43.060;25.618;2023-04-03T06:24:04;13.60;81.60
68354;DHT22;55274;43.060;25.618;2023-04-03T06:26:30;13.40;82.40
68354;DHT22;55274;43.060;25.618;2023-04-03T06:28:56;13.10;82.70
68354;DHT22;55274;43.060;25.618;2023-04-03T06:31:22;13.10;82.90
68354;DHT22;55274;43.060;25.618;2023-04-03T06:33:48;13.00;83.30
68354;DHT22;55274;43.060;25.618;2023-04-03T06:36:13;12.90;83.50
68354;DHT22;55274;43.060;25.618;2023-04-03T06:38:39;13.00;83.40
68354;DHT22;55274;43.060;25.618;2023-04-03T06:41:05;13.20;83.30
68354;DHT22;55274;43.060;25.618;2023-04-03T06:43:31;13.20;83.50
68354;DHT22;55274;43.060;25.618;2023-04-03T06:45:57;13.30;84.30
68354;DHT22;55274;43.060;25.618;2023-04-03T06:48:23;13.50;83.60
68354;DHT22;55274;43.060;25.618;2023-04-03T06:50:49;13.60;83.00
68354;DHT22;55274;43.060;25.618;2023-04-03T06:53:15;13.60;83.60
68354;DHT22;55274;43.060;25.618;2023-04-03T06:55:41;13.60;82.50
68354;DHT22;55274;43.060;25.618;2023-04-03T06:58:07;13.60;83.30
68354;DHT22;55274;43.060;25.618;2023-04-03T07:00:33;13.70;83.60
68354;DHT22;55274;43.060;25.618;2023-04-03T07:02:59;13.70;82.10
68354;DHT22;55274;43.060;25.618;2023-04-03T07:05:25;13.80;81.80
68354;DHT22;55274;43.060;25.618;2023-04-03T07:07:52;13.90;82.40
68354;DHT22;55274;43.060;25.618;2023-04-03T07:10:18;13.90;81.40
68354;DHT22;55274;43.060;25.618;2023-04-03T07:12:44;13.90;81.70
68354;DHT22;55274;43.060;25.618;2023-04-03T07:15:10;13.90;82.10
68354;DHT22;55274;43.060;25.618;2023-04-03T07:17:37;14.10;82.20
68354;DHT22;55274;43.060;25.618;2023-04-03T07:20:03;14.30;81.70
68354;DHT22;55274;43.060;25.618;2023-04-03T07:22:30;14.40;81.80
68354;DHT22;55274;43.060;25.618;2023-04-03T07:24:55;14.40;81.90
68354;DHT22;55274;43.060;25.618;2023-04-03T07:27:21;14.50;82.00
68354;DHT22;55274;43.060;25.618;2023-04-03T07:29:47;14.70;81.80
68354;DHT22;55274;43.060;25.618;2023-04-03T07:32:16;14.70;80.00
68354;DHT22;55274;43.060;25.618;2023-04-03T07:34:43;14.70;79.30
68354;DHT22;55274;43.060;25.618;2023-04-03T07:37:09;14.90;79.30
68354;DHT22;55274;43.060;25.618;2023-04-03T07:39:35;15.00;80.20
68354;DHT22;55274;43.060;25.618;2023-04-03T07:42:02;15.20;78.80
68354;DHT22;55274;43.060;25.618;2023-04-03T07:44:28;15.40;79.10
68354;DHT22;55274;43.060;25.618;2023-04-03T07:46:54;15.70;78.10
68354;DHT22;55274;43.060;25.618;2023-04-03T07:49:21;15.90;77.60
68354;DHT22;55274;43.060;25.618;2023-04-03T07:51:49;16.00;76.00
68354;DHT22;55274;43.060;25.618;2023-04-03T07:54:15;16.10;75.50
68354;DHT22;55274;43.060;25.618;2023-04-03T07:56:41;16.30;73.60
68354;DHT22;55274;43.060;25.618;2023-04-03T07:59:09;16.60;73.80
68354;DHT22;55274;43.060;25.618;2023-04-03T08:01:35;16.70;71.40
68354;DHT22;55274;43.060;25.618;2023-04-03T08:04:01;16.70;70.40
68354;DHT22;55274;43.060;25.618;2023-04-03T08:06:27;16.80;68.80
68354;DHT22;55274;43.060;25.618;2023-04-03T08:08:55;16.90;68.60
68354;DHT22;55274;43.060;25.618;2023-04-03T08:11:21;17.00;67.20
68354;DHT22;55274;43.060;25.618;2023-04-03T08:13:47;17.00;67.00
68354;DHT22;55274;43.060;25.618;2023-04-03T08:16:16;17.20;67.20
68354;DHT22;55274;43.060;25.618;2023-04-03T08:18:42;17.40;66.40
68354;DHT22;55274;43.060;25.618;2023-04-03T08:21:10;17.60;66.70
68354;DHT22;55274;43.060;25.618;2023-04-03T08:23:37;17.60;64.60
68354;DHT22;55274;43.060;25.618;2023-04-03T08:26:11;17.70;64.10
68354;DHT22;55274;43.060;25.618;2023-04-03T08:28:38;17.80;65.70
68354;DHT22;55274;43.060;25.618;2023-04-03T08:31:05;17.90;65.60
68354;DHT22;55274;43.060;25.618;2023-04-03T08:33:32;17.90;64.50
68354;DHT22;55274;43.060;25.618;2023-04-03T08:35:57;17.80;64.50
68354;DHT22;55274;43.060;25.618;2023-04-03T08:38:23;17.50;64.10
68354;DHT22;55274;43.060;25.618;2023-04-03T08:41:01;17.50;65.60
68354;DHT22;55274;43.060;25.618;2023-04-03T08:43:40;17.60;64.80
68354;DHT22;55274;43.060;25.618;2023-04-03T08:46:13;17.70;64.60
68354;DHT22;55274;43.060;25.618;2023-04-03T08:48:41;17.80;64.60
68354;DHT22;55274;43.060;25.618;2023-04-03T08:51:16;17.90;65.10
68354;DHT22;55274;43.060;25.618;2023-04-03T08:53:55;18.00;63.50
68354;DHT22;55274;43.060;25.618;2023-04-03T08:56:22;17.90;64.30
68354;DHT22;55274;43.060;25.618;2023-04-03T08:58:58;17.70;64.30
68354;DHT22;55274;43.060;25.618;2023-04-03T09:01:39;17.70;64.20
68354;DHT22;55274;43.060;25.618;2023-04-03T09:04:14;17.70;64.50
68354;DHT22;55274;43.060;25.618;2023-04-03T09:06:44;17.80;65.10
68354;DHT22;55274;43.060;25.618;2023-04-03T09:16:55;18.10;61.60
68354;DHT22;55274;43.060;25.618;2023-04-03T09:22:11;18.40;62.20
68354;DHT22;55274;43.060;25.618;2023-04-03T09:24:38;18.40;60.30
68354;DHT22;55274;43.060;25.618;2023-04-03T09:27:08;18.40;61.50
68354;DHT22;55274;43.060;25.618;2023-04-03T09:29:40;18.50;62.40
68354;DHT22;55274;43.060;25.618;2023-04-03T09:32:27;18.60;60.50
68354;DHT22;55274;43.060;25.618;2023-04-03T09:34:55;18.70;61.50
68354;DHT22;55274;43.060;25.618;2023-04-03T09:37:38;18.80;60.30
68354;DHT22;55274;43.060;25.618;2023-04-03T09:40:11;18.80;59.00
68354;DHT22;55274;43.060;25.618;2023-04-03T09:42:57;19.00;59.30
68354;DHT22;55274;43.060;25.618;2023-04-03T09:45:34;19.30;59.70
68354;DHT22;55274;43.060;25.618;2023-04-03T09:50:53;19.70;59.80
68354;DHT22;55274;43.060;25.618;2023-04-03T09:56:03;19.80;56.50
68354;DHT22;55274;43.060;25.618;2023-04-03T09:59:14;19.80;57.20
68354;DHT22;55274;43.060;25.618;2023-04-03T10:01:57;20.20;57.10
68354;DHT22;55274;43.060;25.618;2023-04-03T10:04:23;20.10;56.50
68354;DHT22;55274;43.060;25.618;2023-04-03T10:06:52;19.80;57.20
68354;DHT22;55274;43.060;25.618;2023-04-03T10:14:55;19.90;57.00
68354;DHT22;55274;43.060;25.618;2023-04-03T10:23:19;19.60;57.50
68354;DHT22;55274;43.060;25.618;2023-04-03T10:28:35;19.90;58.20
68354;DHT22;55274;43.060;25.618;2023-04-03T10:42:04;20.00;57.60
68354;DHT22;55274;43.060;25.618;2023-04-03T10:45:24;20.00;56.10
68354;DHT22;55274;43.060;25.618;2023-04-03T10:47:51;19.80;55.70
68354;DHT22;55274;43.060;25.618;2023-04-03T10:58:24;19.40;56.00
68354;DHT22;55274;43.060;25.618;2023-04-03T11:00:54;19.10;57.10
68354;DHT22;55274;43.060;25.618;2023-04-03T11:03:36;19.00;58.30
68354;DHT22;55274;43.060;25.618;2023-04-03T11:06:08;18.80;57.60
68354;DHT22;55274;43.060;25.618;2023-04-03T11:08:52;18.60;56.60
68354;DHT22;55274;43.060;25.618;2023-04-03T11:11:32;18.60;57.40
68354;DHT22;55274;43.060;25.618;2023-04-03T11:16:48;18.30;58.70
68354;DHT22;55274;43.060;25.618;2023-04-03T11:19:36;18.10;59.20
68354;DHT22;55274;43.060;25.618;2023-04-03T11:22:30;18.10;60.60
68354;DHT22;55274;43.060;25.618;2023-04-03T11:27:43;18.00;59.60
68354;DHT22;55274;43.060;25.618;2023-04-03T11:36:10;17.90;57.80
68354;DHT22;55274;43.060;25.618;2023-04-03T11:38:42;17.90;58.10
68354;DHT22;55274;43.060;25.618;2023-04-03T11:41:10;17.90;58.80
68354;DHT22;55274;43.060;25.618;2023-04-03T11:44:04;17.70;59.00
68354;DHT22;55274;43.060;25.618;2023-04-03T11:46:55;17.70;60.30
68354;DHT22;55274;43.060;25.618;2023-04-03T11:49:56;17.90;59.90
68354;DHT22;55274;43.060;25.618;2023-04-03T12:14:03;17.00;61.50
68354;DHT22;55274;43.060;25.618;2023-04-03T12:24:35;17.10;62.10
68354;DHT22;55274;43.060;25.618;2023-04-03T12:27:21;17.10;62.70
68354;DHT22;55274;43.060;25.618;2023-04-03T12:33:02;17.00;62.10
68354;DHT22;55274;43.060;25.618;2023-04-03T12:35:43;17.10;62.10
68354;DHT22;55274;43.060;25.618;2023-04-03T12:46:04;17.40;61.30
68354;DHT22;55274;43.060;25.618;2023-04-03T12:48:51;17.40;61.60
68354;DHT22;55274;43.060;25.618;2023-04-03T12:51:30;17.50;60.90
68354;DHT22;55274;43.060;25.618;2023-04-03T12:54:23;17.50;60.70
68354;DHT22;55274;43.060;25.618;2023-04-03T12:56:48;17.40;61.10
68354;DHT22;55274;43.060;25.618;2023-04-03T12:59:23;17.50;60.60
68354;DHT22;55274;43.060;25.618;2023-04-03T13:01:57;17.50;62.80
68354;DHT22;55274;43.060;25.618;2023-04-03T13:04:24;17.40;61.90
68354;DHT22;55274;43.060;25.618;2023-04-03T13:06:50;17.30;61.80
68354;DHT22;55274;43.060;25.618;2023-04-03T13:09:24;17.10;61.50
68354;DHT22;55274;43.060;25.618;2023-04-03T13:12:15;17.10;61.80
68354;DHT22;55274;43.060;25.618;2023-04-03T13:14:54;16.90;61.50
68354;DHT22;55274;43.060;25.618;2023-04-03T13:17:21;16.90;62.40
68354;DHT22;55274;43.060;25.618;2023-04-03T13:19:47;16.80;63.30
68354;DHT22;55274;43.060;25.618;2023-04-03T13:22:30;16.70;64.10
68354;DHT22;55274;43.060;25.618;2023-04-03T13:24:59;16.70;66.00
68354;DHT22;55274;43.060;25.618;2023-04-03T13:27:29;16.50;66.80
68354;DHT22;55274;43.060;25.618;2023-04-03T13:29:58;16.50;67.30
68354;DHT22;55274;43.060;25.618;2023-04-03T13:32:27;16.30;68.60
68354;DHT22;55274;43.060;25.618;2023-04-03T13:34:53;16.20;69.60
68354;DHT22;55274;43.060;25.618;2023-04-03T13:37:28;16.10;68.70
68354;DHT22;55274;43.060;25.618;2023-04-03T13:40:00;16.10;71.30
68354;DHT22;55274;43.060;25.618;2023-04-03T13:42:30;16.00;70.70
68354;DHT22;55274;43.060;25.618;2023-04-03T13:47:43;15.80;73.50
68354;DHT22;55274;43.060;25.618;2023-04-03T13:50:14;15.70;74.90
68354;DHT22;55274;43.060;25.618;2023-04-03T13:52:53;15.60;75.10
68354;DHT22;55274;43.060;25.618;2023-04-03T13:55:32;15.50;75.80
68354;DHT22;55274;43.060;25.618;2023-04-03T14:00:40;15.50;77.40
68354;DHT22;55274;43.060;25.618;2023-04-03T14:06:08;15.40;78.40
68354;DHT22;55274;43.060;25.618;2023-04-03T14:08:35;15.40;78.80
68354;DHT22;55274;43.060;25.618;2023-04-03T14:11:01;15.40;79.80
68354;DHT22;55274;43.060;25.618;2023-04-03T14:13:30;15.30;80.70
68354;DHT22;55274;43.060;25.618;2023-04-03T14:15:57;15.30;81.50
68354;DHT22;55274;43.060;25.618;2023-04-03T14:18:22;15.30;82.20
68354;DHT22;55274;43.060;25.618;2023-04-03T14:20:50;15.10;82.40
68354;DHT22;55274;43.060;25.618;2023-04-03T14:23:16;15.10;83.90
68354;DHT22;55274;43.060;25.618;2023-04-03T14:25:42;15.10;84.60
68354;DHT22;55274;43.060;25.618;2023-04-03T14:28:18;15.10;85.40
68354;DHT22;55274;43.060;25.618;2023-04-03T14:30:45;15.10;85.70
68354;DHT22;55274;43.060;25.618;2023-04-03T14:33:18;15.10;87.20
68354;DHT22;55274;43.060;25.618;2023-04-03T14:35:44;15.00;88.80
68354;DHT22;55274;43.060;25.618;2023-04-03T14:38:36;15.00;89.90
68354;DHT22;55274;43.060;25.618;2023-04-03T14:41:02;14.90;90.80
68354;DHT22;55274;43.060;25.618;2023-04-03T14:43:28;14.90;91.50
68354;DHT22;55274;43.060;25.618;2023-04-03T14:45:54;14.90;92.80
68354;DHT22;55274;43.060;25.618;2023-04-03T14:48:25;14.80;93.30
68354;DHT22;55274;43.060;25.618;2023-04-03T14:50:53;14.80;93.70
68354;DHT22;55274;43.060;25.618;2023-04-03T14:53:19;14.80;96.00
68354;DHT22;55274;43.060;25.618;2023-04-03T14:55:49;14.70;97.60
68354;DHT22;55274;43.060;25.618;2023-04-03T14:58:20;14.70;99.80
68354;DHT22;55274;43.060;25.618;2023-04-03T15:00:47;14.70;99.90
68354;DHT22;55274;43.060;25.618;2023-04-03T15:03:15;14.60;99.90
68354;DHT22;55274;43.060;25.618;2023-04-03T15:05:42;14.60;99.90
68354;DHT22;55274;43.060;25.618;2023-04-03T15:08:24;14.50;99.90
68354;DHT22;55274;43.060;25.618;2023-04-03T15:10:51;14.50;99.90
68354;DHT22;55274;43.060;25.618;2023-04-03T15:13:18;14.40;99.90
68354;DHT22;55274;43.060;25.618;2023-04-03T15:15:45;14.40;99.90
68354;DHT22;55274;43.060;25.618;2023-04-03T15:18:21;14.30;99.90
68354;DHT22;55274;43.060;25.618;2023-04-03T15:20:47;14.60;99.90
68354;DHT22;55274;43.060;25.618;2023-04-03T15:23:15;14.30;99.90
68354;DHT22;55274;43.060;25.618;2023-04-03T15:25:50;14.20;99.90
68354;DHT22;55274;43.060;25.618;2023-04-03T15:28:29;14.20;99.90
68354;DHT22;55274;43.060;25.618;2023-04-03T15:30:55;14.10;99.90
68354;DHT22;55274;43.060;25.618;2023-04-03T15:33:21;14.10;99.90
68354;DHT22;55274;43.060;25.618;2023-04-03T15:35:47;14.00;99.90
68354;DHT22;55274;43.060;25.618;2023-04-03T15:38:13;14.00;99.90
68354;DHT22;55274;43.060;25.618;2023-04-03T15:40:39;13.90;99.90
68354;DHT22;55274;43.060;25.618;2023-04-03T15:43:06;13.90;99.90
68354;DHT22;55274;43.060;25.618;2023-04-03T15:45:33;13.80;99.90
68354;DHT22;55274;43.060;25.618;2023-04-03T15:47:59;13.70;99.90
68354;DHT22;55274;43.060;25.618;2023-04-03T15:50:25;13.70;99.90
68354;DHT22;55274;43.060;25.618;2023-04-03T15:52:52;13.60;99.90
68354;DHT22;55274;43.060;25.618;2023-04-03T15:55:25;13.60;99.90
68354;DHT22;55274;43.060;25.618;2023-04-03T15:57:53;13.60;99.90
68354;DHT22;55274;43.060;25.618;2023-04-03T16:00:19;13.60;99.90
68354;DHT22;55274;43.060;25.618;2023-04-03T16:02:47;13.50;99.90
68354;DHT22;55274;43.060;25.618;2023-04-03T16:05:15;13.50;99.90
68354;DHT22;55274;43.060;25.618;2023-04-03T16:07:43;13.50;99.90
68354;DHT22;55274;43.060;25.618;2023-04-03T16:10:11;13.40;99.90
68354;DHT22;55274;43.060;25.618;2023-04-03T16:12:37;13.40;99.90
68354;DHT22;55274;43.060;25.618;2023-04-03T16:15:03;13.40;99.90
68354;DHT22;55274;43.060;25.618;2023-04-03T16:17:29;13.40;99.90
68354;DHT22;55274;43.060;25.618;2023-04-03T16:19:56;13.40;99.90
68354;DHT22;55274;43.060;25.618;2023-04-03T16:22:24;13.40;99.90
68354;DHT22;55274;43.060;25.618;2023-04-03T16:24:50;13.40;99.90
68354;DHT22;55274;43.060;25.618;2023-04-03T16:27:16;13.30;99.90
68354;DHT22;55274;43.060;25.618;2023-04-03T16:29:42;13.30;99.90
68354;DHT22;55274;43.060;25.618;2023-04-03T16:32:08;13.20;99.90
68354;DHT22;55274;43.060;25.618;2023-04-03T16:34:34;13.20;99.90
68354;DHT22;55274;43.060;25.618;2023-04-03T16:37:00;13.30;99.90
68354;DHT22;55274;43.060;25.618;2023-04-03T16:39:26;13.20;99.90
68354;DHT22;55274;43.060;25.618;2023-04-03T16:41:52;13.10;99.90
68354;DHT22;55274;43.060;25.618;2023-04-03T16:44:17;13.10;99.90
68354;DHT22;55274;43.060;25.618;2023-04-03T16:46:44;13.10;99.90
68354;DHT22;55274;43.060;25.618;2023-04-03T16:49:10;13.00;99.90
68354;DHT22;55274;43.060;25.618;2023-04-03T16:51:35;13.10;99.90
68354;DHT22;55274;43.060;25.618;2023-04-03T16:54:01;13.00;99.90
68354;DHT22;55274;43.060;25.618;2023-04-03T16:56:27;13.00;99.90
68354;DHT22;55274;43.060;25.618;2023-04-03T16:58:53;13.00;99.90
68354;DHT22;55274;43.060;25.618;2023-04-03T17:01:21;13.00;99.90
68354;DHT22;55274;43.060;25.618;2023-04-03T17:03:48;12.90;99.90
68354;DHT22;55274;43.060;25.618;2023-04-03T17:06:18;12.90;99.90
68354;DHT22;55274;43.060;25.618;2023-04-03T17:08:46;12.80;99.90
68354;DHT22;55274;43.060;25.618;2023-04-03T17:11:13;12.80;99.90
68354;DHT22;55274;43.060;25.618;2023-04-03T17:13:39;12.70;99.90
68354;DHT22;55274;43.060;25.618;2023-04-03T17:16:07;12.60;99.90
68354;DHT22;55274;43.060;25.618;2023-04-03T17:18:34;12.60;99.90
68354;DHT22;55274;43.060;25.618;2023-04-03T17:21:01;12.50;99.90
68354;DHT22;55274;43.060;25.618;2023-04-03T17:23:28;12.50;99.90
68354;DHT22;55274;43.060;25.618;2023-04-03T17:25:54;12.50;99.90
68354;DHT22;55274;43.060;25.618;2023-04-03T17:28:23;12.50;99.90
68354;DHT22;55274;43.060;25.618;2023-04-03T17:30:54;12.50;99.90
68354;DHT22;55274;43.060;25.618;2023-04-03T17:33:20;12.50;99.90